createdAt,value
2023-02-02T00:00:36.196Z,629.07
2023-02-02T00:01:36.164Z,630.25
2023-02-02T00:02:36.210Z,639.28
2023-02-02T00:03:36.139Z,633.24
2023-02-02T00:04:36.146Z,641.73
2023-02-02T00:05:36.100Z,641.12
2023-02-02T00:06:36.108Z,649.84
2023-02-02T00:07:36.090Z,649.84
2023-02-02T00:08:36.076Z,657.49
2023-02-02T00:09:36.072Z,671.34
2023-02-02T00:10:36.107Z,668.66
2023-02-02T00:11:36.044Z,672.69
2023-02-02T00:12:36.018Z,679.52
2023-02-02T00:13:36.019Z,692.89
2023-02-02T00:14:36.011Z,697.95
2023-02-02T00:15:35.987Z,712.05
2023-02-02T00:16:35.984Z,729.91
2023-02-02T00:17:35.973Z,730.71
2023-02-02T00:18:35.965Z,728.32
2023-02-02T00:19:35.937Z,742.05
2023-02-02T00:20:35.923Z,729.12
2023-02-02T00:21:35.891Z,729.91
2023-02-02T00:22:35.891Z,733.91
2023-02-02T00:23:35.886Z,746.93
2023-02-02T00:24:35.864Z,772.78
2023-02-02T00:25:35.879Z,770.56
2023-02-02T00:26:35.849Z,785.46
2023-02-02T00:27:35.829Z,782.25
2023-02-02T00:28:35.833Z,799.05
2023-02-02T00:29:35.831Z,803.84
2023-02-02T00:30:35.806Z,826.65
2023-02-02T00:31:35.817Z,823.60
2023-02-02T00:32:35.760Z,834.89
2023-02-02T00:33:35.781Z,845.96
2023-02-02T00:34:35.733Z,848.64
2023-02-02T00:35:35.734Z,863.96
2023-02-02T00:36:35.714Z,872.40
2023-02-02T00:37:35.709Z,884.49
2023-02-02T00:38:35.688Z,898.72
2023-02-02T00:39:35.654Z,907.86
2023-02-02T00:40:35.672Z,909.09
2023-02-02T00:41:35.651Z,909.71
2023-02-02T00:42:35.627Z,914.67
2023-02-02T00:43:35.626Z,914.05
2023-02-02T00:44:35.598Z,922.23
2023-02-02T00:45:35.619Z,920.33
2023-02-02T00:46:35.583Z,922.23
2023-02-02T00:47:35.567Z,919.07
2023-02-02T00:48:35.564Z,929.91
2023-02-02T00:49:35.529Z,931.85
2023-02-02T00:50:35.540Z,941.01
2023-02-02T00:51:35.497Z,935.75
2023-02-02T00:52:35.493Z,949.01
2023-02-02T00:53:35.539Z,949.01
2023-02-02T00:54:35.459Z,952.38
2023-02-02T00:55:35.444Z,948.34
2023-02-02T00:56:35.462Z,958.51
2023-02-02T00:57:35.422Z,961.95
2023-02-02T00:58:35.455Z,962.64
2023-02-02T00:59:35.405Z,962.64
2023-02-02T01:00:58.984Z,953.06
2023-02-02T01:01:35.380Z,948.34
2023-02-02T01:02:35.357Z,944.33
2023-02-02T01:03:35.354Z,941.01
2023-02-02T01:04:35.336Z,942.33
2023-02-02T01:05:35.314Z,939.69
2023-02-02T01:06:35.321Z,942.33
2023-02-02T01:07:35.294Z,935.75
2023-02-02T01:08:35.341Z,935.10
2023-02-02T01:09:35.277Z,945.66
2023-02-02T01:10:35.285Z,944.33
2023-02-02T01:11:35.255Z,946.33
2023-02-02T01:12:35.245Z,934.45
2023-02-02T01:13:35.204Z,935.10
2023-02-02T01:14:35.244Z,925.41
2023-02-02T01:15:35.180Z,912.81
2023-02-02T01:16:35.251Z,901.75
2023-02-02T01:17:35.193Z,885.07
2023-02-02T01:18:35.161Z,868.44
2023-02-02T01:19:35.151Z,861.18
2023-02-02T01:20:35.148Z,847.03
2023-02-02T01:21:35.107Z,839.60
2023-02-02T01:22:35.133Z,829.72
2023-02-02T01:23:35.079Z,824.11
2023-02-02T01:24:35.071Z,812.61
2023-02-02T01:25:35.145Z,795.25
2023-02-02T01:26:35.054Z,777.71
2023-02-02T01:27:35.027Z,753.66
2023-02-02T01:28:35.030Z,751.54
2023-02-02T01:29:35.013Z,728.32
2023-02-02T01:30:35.011Z,705.30
2023-02-02T01:31:35.003Z,688.61
2023-02-02T01:32:34.977Z,680.91
2023-02-02T01:33:34.957Z,658.14
2023-02-02T01:34:34.955Z,637.46
2023-02-02T01:35:34.914Z,616.33
2023-02-02T01:36:34.907Z,591.80
2023-02-02T01:37:34.899Z,583.55
2023-02-02T01:38:34.907Z,557.78
2023-02-02T01:39:34.886Z,551.80
2023-02-02T01:40:34.860Z,536.75
2023-02-02T01:41:34.889Z,515.27
2023-02-02T01:42:34.852Z,504.01
2023-02-02T01:43:34.809Z,496.90
2023-02-02T01:44:34.825Z,487.14
2023-02-02T01:45:34.823Z,482.92
2023-02-02T01:46:34.782Z,474.03
2023-02-02T01:47:34.765Z,479.46
2023-02-02T01:48:34.752Z,472.69
2023-02-02T01:49:34.747Z,471.36
2023-02-02T01:50:34.728Z,465.14
2023-02-02T01:51:34.721Z,459.70
2023-02-02T01:52:34.716Z,454.40
2023-02-02T01:53:34.704Z,444.44
2023-02-02T01:54:34.686Z,448.01
2023-02-02T01:55:34.670Z,438.90
2023-02-02T01:56:34.658Z,434.63
2023-02-02T01:57:34.642Z,431.83
2023-02-02T01:58:34.615Z,436.90
2023-02-02T01:59:34.601Z,426.87
2023-02-02T02:00:34.586Z,428.78
2023-02-02T02:01:34.651Z,418.07
2023-02-02T02:02:34.669Z,418.33
2023-02-02T02:03:34.543Z,409.38
2023-02-02T02:04:34.560Z,410.38
2023-02-02T02:05:34.519Z,402.00
2023-02-02T02:06:34.529Z,396.99
2023-02-02T02:07:34.501Z,386.23
2023-02-02T02:08:34.488Z,369.80
2023-02-02T02:09:34.474Z,366.92
2023-02-02T02:10:34.472Z,352.77
2023-02-02T02:11:34.476Z,340.72
2023-02-02T02:12:34.435Z,335.52
2023-02-02T02:13:34.439Z,325.89
2023-02-02T02:14:34.412Z,314.38
2023-02-02T02:15:34.390Z,307.34
2023-02-02T02:16:34.428Z,303.10
2023-02-02T02:17:34.373Z,297.35
2023-02-02T02:18:34.385Z,289.25
2023-02-02T02:19:34.379Z,284.51
2023-02-02T02:20:34.333Z,282.07
2023-02-02T02:21:34.312Z,272.50
2023-02-02T02:22:34.307Z,268.06
2023-02-02T02:23:34.302Z,269.38
2023-02-02T02:24:34.436Z,266.33
2023-02-02T02:25:34.280Z,259.20
2023-02-02T02:26:34.336Z,259.41
2023-02-02T02:27:34.235Z,253.03
2023-02-02T02:28:34.223Z,251.68
2023-02-02T02:29:34.201Z,252.45
2023-02-02T02:30:34.280Z,253.03
2023-02-02T02:31:34.304Z,252.26
2023-02-02T02:32:34.197Z,249.96
2023-02-02T02:33:34.165Z,253.42
2023-02-02T02:34:34.175Z,250.72
2023-02-02T02:35:34.142Z,252.64
2023-02-02T02:36:34.139Z,255.38
2023-02-02T02:37:34.138Z,254.99
2023-02-02T02:38:34.098Z,258.39
2023-02-02T02:39:34.090Z,260.02
2023-02-02T02:40:34.081Z,256.18
2023-02-02T02:41:34.054Z,261.05
2023-02-02T02:42:34.041Z,258.59
2023-02-02T02:43:34.021Z,262.93
2023-02-02T02:44:34.035Z,262.51
2023-02-02T02:45:34.005Z,260.85
2023-02-02T02:46:34.030Z,261.05
2023-02-02T02:47:33.975Z,258.19
2023-02-02T02:48:33.970Z,261.05
2023-02-02T02:49:33.943Z,261.47
2023-02-02T02:50:33.934Z,263.14
2023-02-02T02:51:34.042Z,262.72
2023-02-02T02:52:33.905Z,264.19
2023-02-02T02:53:33.892Z,268.94
2023-02-02T02:54:33.888Z,270.71
2023-02-02T02:55:33.875Z,274.09
2023-02-02T02:56:33.934Z,275.23
2023-02-02T02:57:33.866Z,277.32
2023-02-02T02:58:33.835Z,275.46
2023-02-02T02:59:33.838Z,271.15
2023-02-02T03:00:33.805Z,270.26
2023-02-02T03:01:33.794Z,276.62
2023-02-02T03:02:33.830Z,278.49
2023-02-02T03:03:33.802Z,279.44
2023-02-02T03:04:33.776Z,280.63
2023-02-02T03:05:33.731Z,282.55
2023-02-02T03:06:33.759Z,283.04
2023-02-02T03:07:33.728Z,282.80
2023-02-02T03:08:33.723Z,285.74
2023-02-02T03:09:33.722Z,284.51
2023-02-02T03:10:33.687Z,287.23
2023-02-02T03:11:33.663Z,287.23
2023-02-02T03:12:33.657Z,286.73
2023-02-02T03:13:33.646Z,290.02
2023-02-02T03:14:33.617Z,293.90
2023-02-02T03:15:33.652Z,296.28
2023-02-02T03:16:33.607Z,301.71
2023-02-02T03:17:33.599Z,309.07
2023-02-02T03:18:33.576Z,318.95
2023-02-02T03:19:33.590Z,328.82
2023-02-02T03:20:33.566Z,335.18
2023-02-02T03:21:33.548Z,344.65
2023-02-02T03:22:33.527Z,354.29
2023-02-02T03:23:33.510Z,362.47
2023-02-02T03:24:33.505Z,372.73
2023-02-02T03:25:33.476Z,380.30
2023-02-02T03:26:33.498Z,386.90
2023-02-02T03:27:33.454Z,392.34
2023-02-02T03:28:33.438Z,397.46
2023-02-02T03:29:33.449Z,404.18
2023-02-02T03:30:33.475Z,408.38
2023-02-02T03:31:33.585Z,413.42
2023-02-02T03:32:33.377Z,419.64
2023-02-02T03:33:33.383Z,426.60
2023-02-02T03:34:33.383Z,440.64
2023-02-02T03:35:33.365Z,449.82
2023-02-02T03:36:33.335Z,464.49
2023-02-02T03:37:33.345Z,473.36
2023-02-02T03:38:33.316Z,483.62
2023-02-02T03:39:33.314Z,491.79
2023-02-02T03:40:33.292Z,496.90
2023-02-02T03:41:33.266Z,499.87
2023-02-02T03:42:33.287Z,500.99
2023-02-02T03:43:33.260Z,503.26
2023-02-02T03:44:33.272Z,502.88
2023-02-02T03:45:33.229Z,504.77
2023-02-02T03:46:33.227Z,501.75
2023-02-02T03:47:33.186Z,504.77
2023-02-02T03:48:33.169Z,504.01
2023-02-02T03:49:33.191Z,508.22
2023-02-02T03:50:33.173Z,507.84
2023-02-02T03:51:33.156Z,514.08
2023-02-02T03:52:33.137Z,516.06
2023-02-02T03:53:33.110Z,510.55
2023-02-02T03:54:33.087Z,509.00
2023-02-02T03:55:33.089Z,506.68
2023-02-02T03:56:33.059Z,505.54
2023-02-02T03:57:33.065Z,499.50
2023-02-02T03:58:33.052Z,495.80
2023-02-02T03:59:33.060Z,498.01
2023-02-02T04:00:33.025Z,504.01
2023-02-02T04:01:33.067Z,513.68
2023-02-02T04:02:33.019Z,516.86
2023-02-02T04:03:33.004Z,526.20
2023-02-02T04:04:32.971Z,532.48
2023-02-02T04:05:32.987Z,548.63
2023-02-02T04:06:32.932Z,558.24
2023-02-02T04:07:32.942Z,561.99
2023-02-02T04:08:32.918Z,575.03
2023-02-02T04:09:32.928Z,585.08
2023-02-02T04:10:32.907Z,585.59
2023-02-02T04:11:32.896Z,587.13
2023-02-02T04:12:32.868Z,594.96
2023-02-02T04:13:32.846Z,593.38
2023-02-02T04:14:32.869Z,597.08
2023-02-02T04:15:32.863Z,607.93
2023-02-02T04:16:32.854Z,611.26
2023-02-02T04:17:32.816Z,615.19
2023-02-02T04:18:32.784Z,622.05
2023-02-02T04:19:32.800Z,620.32
2023-02-02T04:20:32.855Z,627.30
2023-02-02T04:21:32.902Z,635.64
2023-02-02T04:22:32.758Z,640.51
2023-02-02T04:23:32.749Z,649.21
2023-02-02T04:24:32.716Z,647.95
2023-02-02T04:25:32.711Z,658.79
2023-02-02T04:26:32.754Z,663.36
2023-02-02T04:27:32.695Z,660.74
2023-02-02T04:28:32.650Z,666.00
2023-02-02T04:29:32.670Z,668.66
2023-02-02T04:30:32.655Z,672.02
2023-02-02T04:31:32.611Z,669.33
2023-02-02T04:32:32.615Z,668.66
2023-02-02T04:33:32.610Z,672.02
2023-02-02T04:34:32.585Z,676.78
2023-02-02T04:35:32.577Z,674.05
2023-02-02T04:36:32.571Z,673.37
2023-02-02T04:37:32.569Z,660.74
2023-02-02T04:38:32.518Z,656.85
2023-02-02T04:39:32.519Z,650.47
2023-02-02T04:40:32.492Z,651.10
2023-02-02T04:41:32.479Z,632.64
2023-02-02T04:42:32.475Z,628.48
2023-02-02T04:43:32.451Z,602.46
2023-02-02T04:44:32.442Z,604.63
2023-02-02T04:45:32.465Z,589.20
2023-02-02T04:46:32.426Z,581.02
2023-02-02T04:47:32.407Z,581.02
2023-02-02T04:48:32.389Z,577.51
2023-02-02T04:49:32.382Z,577.01
2023-02-02T04:50:32.380Z,583.55
2023-02-02T04:51:32.353Z,594.96
2023-02-02T04:52:32.335Z,593.90
2023-02-02T04:53:32.338Z,602.46
2023-02-02T04:54:32.302Z,605.73
2023-02-02T04:55:32.299Z,609.59
2023-02-02T04:56:32.283Z,609.04
2023-02-02T04:57:32.265Z,620.90
2023-02-02T04:58:32.273Z,621.48
2023-02-02T04:59:32.268Z,633.24
2023-02-02T05:00:32.226Z,642.35
2023-02-02T05:01:32.246Z,651.10
2023-02-02T05:02:32.215Z,648.58
2023-02-02T05:03:32.198Z,651.73
2023-02-02T05:04:32.319Z,655.56
2023-02-02T05:05:32.183Z,662.05
2023-02-02T05:06:32.205Z,662.70
2023-02-02T05:07:32.161Z,664.68
2023-02-02T05:08:32.136Z,672.69
2023-02-02T05:09:32.111Z,676.78
2023-02-02T05:10:32.121Z,676.09
2023-02-02T05:11:32.093Z,672.69
2023-02-02T05:12:32.100Z,681.60
2023-02-02T05:13:32.071Z,676.78
2023-02-02T05:14:32.068Z,680.21
2023-02-02T05:15:32.056Z,677.46
2023-02-02T05:16:32.053Z,670.00
2023-02-02T05:17:32.041Z,674.05
2023-02-02T05:18:31.989Z,660.74
2023-02-02T05:19:32.001Z,662.70
2023-02-02T05:20:31.961Z,645.45
2023-02-02T05:21:31.975Z,639.28
2023-02-02T05:22:31.968Z,631.44
2023-02-02T05:23:31.942Z,620.90
2023-02-02T05:24:31.949Z,612.38
2023-02-02T05:25:31.899Z,602.46
2023-02-02T05:26:31.961Z,585.08
2023-02-02T05:27:31.895Z,577.01
2023-02-02T05:28:31.868Z,563.41
2023-02-02T05:29:31.860Z,552.71
2023-02-02T05:30:33.548Z,540.65
2023-02-02T05:31:31.890Z,532.06
2023-02-02T05:32:31.827Z,513.68
2023-02-02T05:33:31.819Z,508.22
2023-02-02T05:34:31.793Z,495.07
2023-02-02T05:35:31.780Z,476.39
2023-02-02T05:36:31.774Z,469.05
2023-02-02T05:37:31.747Z,455.33
2023-02-02T05:38:31.738Z,436.05
2023-02-02T05:39:31.719Z,422.82
2023-02-02T05:40:31.719Z,412.15
2023-02-02T05:41:31.694Z,397.46
2023-02-02T05:42:31.673Z,386.00
2023-02-02T05:43:31.719Z,383.79
2023-02-02T05:44:31.668Z,368.56
2023-02-02T05:45:31.637Z,368.97
2023-02-02T05:46:31.622Z,365.69
2023-02-02T05:47:31.625Z,361.28
2023-02-02T05:48:31.597Z,353.90
2023-02-02T05:49:31.597Z,349.77
2023-02-02T05:50:31.585Z,344.29
2023-02-02T05:51:31.595Z,337.93
2023-02-02T05:52:31.555Z,334.83
2023-02-02T05:53:31.536Z,332.47
2023-02-02T05:54:31.514Z,332.13
2023-02-02T05:55:31.522Z,325.25
2023-02-02T05:56:31.509Z,327.51
2023-02-02T05:57:31.510Z,337.93
2023-02-02T05:58:31.462Z,338.97
2023-02-02T05:59:31.454Z,347.56
2023-02-02T06:00:31.457Z,352.01
2023-02-02T06:01:31.451Z,355.82
2023-02-02T06:02:31.415Z,364.48
2023-02-02T06:03:31.593Z,371.47
2023-02-02T06:04:31.406Z,374.42
2023-02-02T06:05:31.409Z,382.69
2023-02-02T06:06:31.392Z,387.57
2023-02-02T06:07:31.356Z,399.12
2023-02-02T06:08:31.327Z,418.33
2023-02-02T06:09:31.341Z,430.71
2023-02-02T06:10:31.308Z,439.48
2023-02-02T06:11:31.299Z,454.71
2023-02-02T06:12:31.304Z,465.14
2023-02-02T06:13:31.271Z,474.03
2023-02-02T06:14:31.265Z,485.37
2023-02-02T06:15:31.300Z,497.64
2023-02-02T06:16:31.256Z,507.45
2023-02-02T06:17:31.235Z,510.55
2023-02-02T06:18:31.214Z,520.88
2023-02-02T06:19:31.209Z,526.20
2023-02-02T06:20:31.192Z,537.18
2023-02-02T06:21:31.195Z,536.75
2023-02-02T06:22:31.186Z,541.97
2023-02-02T06:23:31.138Z,545.50
2023-02-02T06:24:31.131Z,541.97
2023-02-02T06:25:31.129Z,558.24
2023-02-02T06:26:31.135Z,562.46
2023-02-02T06:27:31.102Z,568.19
2023-02-02T06:28:31.132Z,578.01
2023-02-02T06:29:31.072Z,587.13
2023-02-02T06:30:31.061Z,591.28
2023-02-02T06:31:31.132Z,599.76
2023-02-02T06:32:31.038Z,611.26
2023-02-02T06:33:31.009Z,615.19
2023-02-02T06:34:31.014Z,623.79
2023-02-02T06:35:31.003Z,624.96
2023-02-02T06:36:30.987Z,626.71
2023-02-02T06:37:30.973Z,636.85
2023-02-02T06:38:30.943Z,637.46
2023-02-02T06:39:30.946Z,638.67
2023-02-02T06:40:30.934Z,644.21
2023-02-02T06:41:30.896Z,647.32
2023-02-02T06:42:30.896Z,652.37
2023-02-02T06:43:30.891Z,651.10
2023-02-02T06:44:30.860Z,649.21
2023-02-02T06:45:30.873Z,644.83
2023-02-02T06:46:30.907Z,642.97
2023-02-02T06:47:30.830Z,639.28
2023-02-02T06:48:30.844Z,644.83
2023-02-02T06:49:30.807Z,651.73
2023-02-02T06:50:30.815Z,668.66
2023-02-02T06:51:30.771Z,675.41
2023-02-02T06:52:30.768Z,687.20
2023-02-02T06:53:30.801Z,695.05
2023-02-02T06:54:30.748Z,713.57
2023-02-02T06:55:30.751Z,715.86
2023-02-02T06:56:30.723Z,724.38
2023-02-02T06:57:30.696Z,732.31
2023-02-02T06:58:30.689Z,741.23
2023-02-02T06:59:30.664Z,751.12
2023-02-02T07:00:30.736Z,759.21
2023-02-02T07:01:30.675Z,765.71
2023-02-02T07:02:30.639Z,758.35
2023-02-02T07:03:30.626Z,759.21
2023-02-02T07:04:30.614Z,772.78
2023-02-02T07:05:31.156Z,780.43
2023-02-02T07:06:30.590Z,778.16
2023-02-02T07:07:30.574Z,796.67
2023-02-02T07:08:30.546Z,801.91
2023-02-02T07:09:30.536Z,815.58
2023-02-02T07:11:11.027Z,820.07
2023-02-02T07:11:30.598Z,834.37
2023-02-02T07:12:30.496Z,838.55
2023-02-02T07:13:30.503Z,844.89
2023-02-02T07:14:30.466Z,866.75
2023-02-02T07:15:30.461Z,873.53
2023-02-02T07:16:30.458Z,886.24
2023-02-02T07:17:30.450Z,892.14
2023-02-02T07:18:30.419Z,905.41
2023-02-02T07:19:30.420Z,914.05
2023-02-02T07:20:30.396Z,933.15
2023-02-02T07:21:30.417Z,938.38
2023-02-02T07:22:30.378Z,952.38
2023-02-02T07:23:30.348Z,964.03
2023-02-02T07:24:30.349Z,978.10
2023-02-02T07:25:30.338Z,983.85
2023-02-02T07:26:30.342Z,994.07
2023-02-02T07:27:30.303Z,998.51
2023-02-02T07:28:30.306Z,1010.56
2023-02-02T07:29:30.294Z,1015.92
2023-02-02T07:30:30.309Z,1019.01
2023-02-02T07:31:30.373Z,1028.40
2023-02-02T07:32:30.265Z,1033.15
2023-02-02T07:33:30.235Z,1035.55
2023-02-02T07:34:30.236Z,1052.63
2023-02-02T07:35:30.195Z,1053.46
2023-02-02T07:36:30.197Z,1064.34
2023-02-02T07:37:30.164Z,1062.65
2023-02-02T07:38:30.190Z,1069.43
2023-02-02T07:39:30.144Z,1076.31
2023-02-02T07:40:30.142Z,1071.14
2023-02-02T07:41:30.118Z,1075.44
2023-02-02T07:42:30.106Z,1091.20
2023-02-02T07:43:30.084Z,1083.27
2023-02-02T07:44:30.083Z,1082.39
2023-02-02T07:45:30.076Z,1066.88
2023-02-02T07:46:30.093Z,1067.73
2023-02-02T07:47:30.039Z,1070.29
2023-02-02T07:48:30.029Z,1066.03
2023-02-02T07:49:30.014Z,1066.03
2023-02-02T07:50:30.009Z,1064.34
2023-02-02T07:51:29.976Z,1063.49
2023-02-02T07:52:29.983Z,1055.12
2023-02-02T07:53:29.967Z,1072.00
2023-02-02T07:54:29.973Z,1069.43
2023-02-02T07:55:30.250Z,1070.29
2023-02-02T07:56:29.914Z,1067.73
2023-02-02T07:57:29.910Z,1075.44
2023-02-02T07:58:29.907Z,1074.58
2023-02-02T07:59:32.211Z,1067.73
2023-02-02T08:00:29.884Z,1071.14
2023-02-02T08:01:29.884Z,1070.29
2023-02-02T08:02:29.896Z,1067.73
2023-02-02T08:03:29.819Z,1057.62
2023-02-02T08:04:29.842Z,1060.97
2023-02-02T08:05:29.806Z,1060.97
2023-02-02T08:06:29.841Z,1060.97
2023-02-02T08:07:29.784Z,1062.65
2023-02-02T08:08:29.767Z,1065.18
2023-02-02T08:09:29.744Z,1062.65
2023-02-02T08:10:29.747Z,1072.00
2023-02-02T08:11:29.730Z,1074.58
2023-02-02T08:12:29.721Z,1070.29
2023-02-02T08:13:29.711Z,1061.81
2023-02-02T08:14:29.690Z,1056.78
2023-02-02T08:15:29.686Z,1053.46
2023-02-02T08:16:29.903Z,1038.76
2023-02-02T08:17:29.637Z,1033.95
2023-02-02T08:18:29.631Z,1021.34
2023-02-02T08:19:29.638Z,1019.01
2023-02-02T08:20:29.602Z,1018.24
2023-02-02T08:21:29.614Z,1020.56
2023-02-02T08:22:29.579Z,1022.90
2023-02-02T08:23:29.584Z,1030.77
2023-02-02T08:24:29.551Z,1018.24
2023-02-02T08:25:29.551Z,1015.92
2023-02-02T08:26:29.683Z,1022.12
2023-02-02T08:27:29.505Z,1041.18
2023-02-02T08:28:29.532Z,1042.80
2023-02-02T08:29:29.485Z,1043.61
2023-02-02T08:30:29.475Z,1041.99
2023-02-02T08:31:29.520Z,1058.45
2023-02-02T08:32:29.467Z,1074.58
2023-02-02T08:33:29.435Z,1083.27
2023-02-02T08:34:29.416Z,1095.67
2023-02-02T08:35:29.395Z,1097.46
2023-02-02T08:36:29.433Z,1112.03
2023-02-02T08:37:29.396Z,1119.46
2023-02-02T08:38:29.433Z,1141.40
2023-02-02T08:39:29.345Z,1160.17
2023-02-02T08:40:29.411Z,1185.84
2023-02-02T08:41:29.389Z,1202.87
2023-02-02T08:42:29.337Z,1214.87
2023-02-02T08:43:29.335Z,1201.79
2023-02-02T08:44:45.884Z,1187.94
2023-02-02T08:46:08.130Z,1186.89
2023-02-02T08:46:29.405Z,1183.74
2023-02-02T08:47:29.248Z,1187.94
2023-02-02T08:48:29.240Z,1170.31
2023-02-02T08:49:29.224Z,1162.19
2023-02-02T08:50:29.233Z,1147.26
2023-02-02T08:51:29.196Z,1135.59
2023-02-02T08:52:29.179Z,1121.34
2023-02-02T08:53:29.198Z,1115.74
2023-02-02T08:54:29.159Z,1122.28
2023-02-02T08:55:29.133Z,1135.59
2023-02-02T08:56:29.175Z,1157.17
2023-02-02T08:57:29.124Z,1208.30
2023-02-02T08:58:29.132Z,1240.74
2023-02-02T08:59:29.098Z,1268.94
2023-02-02T09:00:29.142Z,1318.90
2023-02-02T09:01:29.108Z,1370.14
2023-02-02T09:02:29.069Z,1391.48
2023-02-02T09:03:29.042Z,1427.05
2023-02-02T09:04:29.030Z,1469.30
2023-02-02T09:05:29.019Z,1495.54
2023-02-02T09:06:29.000Z,1480.66
2023-02-02T09:07:28.975Z,1488.89
2023-02-02T09:08:29.099Z,1496.37
2023-02-02T09:09:28.955Z,1498.88
2023-02-02T09:10:28.983Z,1520.14
2023-02-02T09:11:28.941Z,1534.06
2023-02-02T09:12:28.941Z,1534.06
2023-02-02T09:13:28.903Z,1520.14
2023-02-02T09:14:28.923Z,1530.55
2023-02-02T09:15:28.913Z,1533.18
2023-02-02T09:16:28.921Z,1540.23
2023-02-02T09:17:28.872Z,1518.41
2023-02-02T09:18:28.864Z,1531.43
2023-02-02T09:19:28.861Z,1523.59
2023-02-02T09:20:28.828Z,1508.16
2023-02-02T09:21:28.807Z,1503.08
2023-02-02T09:22:29.034Z,1497.21
2023-02-02T09:23:28.775Z,1470.91
2023-02-02T09:24:28.780Z,1477.40
2023-02-02T09:25:28.778Z,1470.91
2023-02-02T09:26:28.843Z,1467.69
2023-02-02T09:27:28.719Z,1459.69
2023-02-02T09:28:28.698Z,1464.48
2023-02-02T09:29:28.711Z,1447.08
2023-02-02T09:30:28.701Z,1445.52
2023-02-02T09:31:28.713Z,1442.41
2023-02-02T09:32:28.675Z,1431.62
2023-02-02T09:33:28.636Z,1433.16
2023-02-02T09:34:28.645Z,1416.49
2023-02-02T09:35:28.634Z,1424.02
2023-02-02T09:36:28.650Z,1430.10
2023-02-02T09:37:28.593Z,1437.77
2023-02-02T09:38:28.583Z,1440.86
2023-02-02T09:39:28.587Z,1442.41
2023-02-02T09:40:28.533Z,1431.62
2023-02-02T09:41:28.557Z,1445.52
2023-02-02T09:42:28.531Z,1442.41
2023-02-02T09:43:28.494Z,1462.88
2023-02-02T09:44:28.512Z,1454.94
2023-02-02T09:45:28.487Z,1480.66
2023-02-02T09:46:28.460Z,1474.15
2023-02-02T09:47:28.530Z,1493.87
2023-02-02T09:48:28.430Z,1510.71
2023-02-02T09:49:28.411Z,1498.88
2023-02-02T09:50:28.416Z,1509.01
2023-02-02T09:51:28.397Z,1510.71
2023-02-02T09:52:28.396Z,1527.94
2023-02-02T09:53:28.384Z,1521.86
2023-02-02T09:54:28.372Z,1531.43
2023-02-02T09:55:28.359Z,1550.93
2023-02-02T09:56:28.360Z,1561.77
2023-02-02T09:57:28.347Z,1594.29
2023-02-02T09:58:28.336Z,1649.23
2023-02-02T09:59:28.368Z,1708.09
2023-02-02T10:00:28.327Z,1758.53
2023-02-02T10:01:28.336Z,1762.00
2023-02-02T10:02:28.262Z,1772.49
2023-02-02T10:03:28.349Z,1757.38
2023-02-02T10:04:28.245Z,1755.07
2023-02-02T10:05:28.206Z,1755.07
2023-02-02T10:06:28.204Z,1741.39
2023-02-02T10:07:28.178Z,1740.26
2023-02-02T10:08:34.661Z,1757.38
2023-02-02T10:09:28.181Z,1772.49
2023-02-02T10:10:28.169Z,1808.37
2023-02-02T10:11:28.147Z,1807.15
2023-02-02T10:12:28.142Z,1819.42
2023-02-02T10:13:28.102Z,1824.37
2023-02-02T10:14:28.145Z,1807.15
2023-02-02T10:15:28.250Z,1795.04
2023-02-02T10:16:28.051Z,1774.83
2023-02-02T10:17:28.058Z,1755.07
2023-02-02T10:18:28.074Z,1732.39
2023-02-02T10:19:28.023Z,1723.47
2023-02-02T10:20:28.307Z,1691.92
2023-02-02T10:21:28.008Z,1715.75
2023-02-02T10:22:27.982Z,1699.43
2023-02-02T10:23:27.958Z,1700.51
2023-02-02T10:24:27.979Z,1668.74
2023-02-02T10:25:27.944Z,1694.06
2023-02-02T10:26:27.956Z,1704.83
2023-02-02T10:27:27.916Z,1703.75
2023-02-02T10:28:27.897Z,1757.38
2023-02-02T10:29:29.295Z,1802.29
2023-02-02T10:30:28.019Z,1831.85
2023-02-02T10:31:27.939Z,1871.51
2023-02-02T10:32:27.860Z,1911.55
2023-02-02T10:33:27.817Z,1936.42
2023-02-02T10:34:27.836Z,1928.06
2023-02-02T10:35:27.828Z,1943.44
2023-02-02T10:36:27.818Z,1954.78
2023-02-02T10:37:27.771Z,1951.93
2023-02-02T10:38:27.778Z,1944.85
2023-02-02T10:39:27.743Z,1950.51
2023-02-02T10:40:28.103Z,1985.19
2023-02-02T10:41:27.725Z,1995.53
2023-02-02T10:42:27.754Z,1973.49
2023-02-02T10:43:27.698Z,2001.49
2023-02-02T10:44:27.695Z,1989.61
2023-02-02T10:45:27.798Z,2008.99
2023-02-02T10:46:27.776Z,2022.64
2023-02-02T10:47:27.670Z,2025.70
2023-02-02T10:48:27.720Z,2025.70
2023-02-02T10:49:27.626Z,2045.80
2023-02-02T10:50:28.246Z,2069.50
2023-02-02T10:51:27.638Z,2100.31
2023-02-02T10:52:27.636Z,2103.61
2023-02-02T10:53:27.618Z,2103.61
2023-02-02T10:54:27.589Z,2115.23
2023-02-02T10:55:27.587Z,2128.67
2023-02-02T10:56:27.691Z,2144.00
2023-02-02T10:57:27.522Z,2207.58
2023-02-02T10:58:27.586Z,2263.51
2023-02-02T10:59:27.486Z,2308.35
2023-02-02T11:00:28.000Z,2340.61
2023-02-02T11:01:27.532Z,2375.89
2023-02-02T11:02:27.522Z,2395.00
2023-02-02T11:03:27.479Z,2425.34
2023-02-02T11:04:27.446Z,2454.21
2023-02-02T11:05:27.444Z,2488.39
2023-02-02T11:06:27.466Z,2467.77
2023-02-02T11:07:27.401Z,2481.48
2023-02-02T11:08:27.401Z,2495.34
2023-02-02T11:09:27.392Z,2511.72
2023-02-02T11:10:27.664Z,2521.17
2023-02-02T11:11:27.330Z,2535.48
2023-02-02T11:12:27.353Z,2537.88
2023-02-02T11:13:27.337Z,2547.53
2023-02-02T11:14:27.299Z,2567.05
2023-02-02T11:15:27.280Z,2569.51
2023-02-02T11:16:38.877Z,2589.37
2023-02-02T11:17:27.269Z,2576.92
2023-02-02T11:18:27.390Z,2581.89
2023-02-02T11:19:27.212Z,2586.87
2023-02-02T11:20:27.362Z,2537.88
2023-02-02T11:21:27.209Z,2540.28
2023-02-02T11:22:27.190Z,2518.80
2023-02-02T11:23:27.180Z,2458.72
2023-02-02T11:24:27.159Z,2465.50
2023-02-02T11:25:27.158Z,2465.50
2023-02-02T11:26:27.146Z,2490.71
2023-02-02T11:27:27.113Z,2467.77
2023-02-02T11:28:27.144Z,2493.02
2023-02-02T11:29:27.076Z,2516.43
2023-02-02T11:30:27.238Z,2530.69
2023-02-02T11:31:27.207Z,2530.69
2023-02-02T11:32:27.048Z,2549.95
2023-02-02T11:33:27.038Z,2604.47
2023-02-02T11:34:27.041Z,2664.02
2023-02-02T11:35:27.036Z,2698.89
2023-02-02T11:36:27.033Z,2745.90
2023-02-02T11:37:26.974Z,2777.20
2023-02-02T11:38:26.982Z,2800.42
2023-02-02T11:39:26.993Z,2794.58
2023-02-02T11:40:27.201Z,2854.10
2023-02-02T11:41:26.946Z,2875.54
2023-02-02T11:42:26.935Z,2884.82
2023-02-02T11:43:26.912Z,2916.21
2023-02-02T11:44:26.886Z,2919.39
2023-02-02T11:45:26.887Z,2913.04
2023-02-02T11:46:26.923Z,2906.72
2023-02-02T11:47:26.853Z,2928.96
2023-02-02T11:48:26.926Z,2932.17
2023-02-02T11:49:26.829Z,2941.82
2023-02-02T11:50:27.071Z,2945.05
2023-02-02T11:51:26.870Z,2938.60
2023-02-02T11:52:26.798Z,2916.21
2023-02-02T11:53:26.795Z,2916.21
2023-02-02T11:54:26.747Z,2841.99
2023-02-02T11:55:26.867Z,2875.54
2023-02-02T11:56:26.746Z,2838.98
2023-02-02T11:57:26.705Z,2827.00
2023-02-02T11:58:26.706Z,2815.12
2023-02-02T11:59:26.692Z,2809.22
2023-02-02T12:00:27.236Z,2821.05
2023-02-02T12:01:26.748Z,2797.49
2023-02-02T12:02:26.651Z,2754.37
2023-02-02T12:03:26.627Z,2765.74
2023-02-02T12:04:26.798Z,2757.20
2023-02-02T12:05:26.615Z,2762.89
2023-02-02T12:06:26.601Z,2745.90
2023-02-02T12:07:26.615Z,2726.35
2023-02-02T12:08:26.570Z,2720.81
2023-02-02T12:09:26.546Z,2712.55
2023-02-02T12:10:26.842Z,2677.32
2023-02-02T12:11:26.526Z,2653.47
2023-02-02T12:12:26.511Z,2661.37
2023-02-02T12:13:26.502Z,2637.79
2023-02-02T12:14:26.482Z,2627.45
2023-02-02T12:15:26.480Z,2607.00
2023-02-02T12:16:26.516Z,2586.87
2023-02-02T12:17:26.457Z,2564.59
2023-02-02T12:18:26.438Z,2540.28
2023-02-02T12:19:26.430Z,2521.17